Fergus Falls, Minnesota
Current Conditions -  °F | °C
As of 1:14 PM on Sunday 21 Dec 2014 (Local Time) from KFFM Reporting Station
Haze Haze  
Wind Chill: 22°   Ceiling: 400
Heat Index: 32°   Visibility: 4mi
Dew Point: 30°   Wind: 15mph
Humidity: 93%   Direction: 160°SSE
Pressure: 29.68"   Gusts: NA
Location:  46.28°N, 96.07°W
Report Text: KFFM 211914Z AUTO 16013KT 4SM BR OVC004 00/M01 A2968 RMK AO2
Loading
Personal Weather Stations






























Interactive Weather Map New forecast layout! Learn more

10-Day Weather Forecast

Advertisements
Track Severe Weather on mobile